Latest Weather Observations for Kilmore Gap

IDV60801

Issued at 6:35 am EST Tuesday 2 September 2014 (issued every 30 minutes, with the page automatically refreshed every 10 minutes)

About weather observations | Map of weather stations | Latest weather observations for VIC | Other Formats
Station Details ID: 088162 Name: KILMORE GAP Lat: -37.38 Lon: 144.97 Height: 527.8 m
Data from the previous 72 hours. | See also: Recent months at Kilmore Gap
Date/Time
EST
Temp
°C
App
Temp
°C
Dew
Point
Rel
Hum
%
Delta-T
°C
Wind Press
QNH
hPa
Press
MSL
hPa
Rain
since 9 am
mm
Dir
 
Spd
km/h
Gust
km/h
Spd
kts
Gust
kts
02/06:30am 5.1 0.2 5.1 100 0.0 SSW 20 33 11 18 1015.0 - 12.4
02/06:00am 5.0 -0.7 5.0 100 0.0 SSW 24 33 13 18 1014.6 1015.0 12.4
02/05:30am 5.3 -1.1 5.3 100 0.0 SSW 28 39 15 21 1014.1 - 12.4
02/05:00am 5.4 -0.6 5.4 100 0.0 SSW 26 37 14 20 1013.7 - 12.4
02/04:58am 5.4 -0.6 5.4 100 0.0 SSW 26 37 14 20 1013.7 - 12.2
02/04:30am 5.4 -0.6 5.4 100 0.0 SSW 26 37 14 20 1013.4 - 12.2
02/04:27am 5.4 -0.2 5.4 100 0.0 SSW 24 32 13 17 1013.3 - 12.2
02/04:00am 5.4 0.2 5.4 100 0.0 SW 22 32 12 17 1013.1 - 12.2
02/03:30am 5.6 0.0 5.6 100 0.0 SW 24 33 13 18 1013.0 - 12.2
02/03:13am 5.8 1.0 5.8 100 0.0 SSW 20 30 11 16 1013.0 - 12.2
02/03:00am 5.9 0.8 5.9 100 0.0 SSW 22 37 12 20 1013.0 1013.4 12.2
02/02:32am 5.6 0.0 5.6 100 0.0 SSW 24 35 13 19 1013.0 - 12.0
02/02:30am 5.7 0.2 5.7 100 0.0 SSW 24 35 13 19 1012.9 - 12.0
02/02:00am 5.6 0.0 5.6 100 0.0 SW 24 32 13 17 1012.8 - 12.0
02/01:38am 5.4 0.8 5.4 100 0.0 SW 19 26 10 14 1012.8 - 12.0
02/01:30am 5.6 0.8 5.6 100 0.0 SW 20 28 11 15 1012.8 - 12.0
02/01:05am 5.8 0.6 5.7 99 0.0 SW 22 32 12 17 1012.7 - 11.8
02/01:00am 5.7 0.5 5.6 99 0.0 SW 22 32 12 17 1012.7 - 11.8
02/12:30am 5.8 1.0 5.7 99 0.0 SW 20 33 11 18 1012.7 - 11.8
02/12:00am 6.0 1.5 6.0 100 0.0 WSW 19 26 10 14 1012.4 1012.9 11.8
 
Date/Time
EST
Temp
°C
App
Temp
°C
Dew
Point
Rel
Hum
%
Delta-T
°C
Wind Press
QNH
hPa
Press
MSL
hPa
Rain
since 9 am
mm
Dir
 
Spd
km/h
Gust
km/h
Spd
kts
Gust
kts
01/11:37pm 6.0 1.5 6.0 100 0.0 SW 19 26 10 14 1012.3 - 11.8
01/11:30pm 5.9 1.7 5.9 100 0.0 SW 17 20 9 11 1012.3 - 11.8
01/11:04pm 6.0 1.9 6.0 100 0.0 SW 17 22 9 12 1012.1 - 11.8
01/11:00pm 6.0 1.9 6.0 100 0.0 SW 17 22 9 12 1012.1 - 11.8
01/10:47pm 6.0 1.5 6.0 100 0.0 SW 19 24 10 13 1012.2 - 11.6
01/10:30pm 6.1 1.6 6.1 100 0.0 SW 19 26 10 14 1012.0 - 11.6
01/10:00pm 6.0 1.9 6.0 100 0.0 SW 17 22 9 12 1011.9 - 11.6
01/09:58pm 5.9 1.7 5.9 100 0.0 SW 17 22 9 12 1011.9 - 11.6
01/09:30pm 6.0 1.8 5.9 99 0.0 SSE 17 24 9 13 1011.2 - 11.6
01/09:00pm 6.6 2.1 6.3 98 0.1 SSW 19 24 10 13 1011.8 1012.2 11.2
01/08:30pm 5.7 2.2 5.6 99 0.0 SW 13 17 7 9 1011.8 - 11.2
01/08:00pm 5.5 1.6 5.5 100 0.0 SW 15 19 8 10 1011.6 - 11.0
01/07:48pm 5.5 0.9 5.5 100 0.0 SW 19 28 10 15 1011.6 - 11.0
01/07:46pm 5.5 0.7 5.5 100 0.0 SW 20 28 11 15 1011.5 - 11.0
01/07:30pm 5.6 0.4 5.6 100 0.0 SW 22 33 12 18 1011.3 - 10.8
01/07:21pm 5.6 -0.3 5.6 100 0.0 SW 26 35 14 19 1011.2 - 10.8
01/07:00pm 5.7 0.2 5.7 100 0.0 SW 24 33 13 18 1010.9 - 10.6
01/06:30pm 7.6 3.8 7.5 99 0.0 SW 17 30 9 16 1010.2 - 10.2
01/06:00pm 7.5 4.8 7.4 99 0.0 SW 11 15 6 8 1009.9 1010.3 10.2
01/05:30pm 7.4 5.1 7.3 99 0.0 WSW 9 13 5 7 1009.5 - 10.2
01/05:07pm 7.3 4.9 7.2 99 0.0 W 9 11 5 6 1009.4 - 10.2
01/05:00pm 7.3 4.6 7.2 99 0.0 WSW 11 15 6 8 1009.3 - 10.2
01/04:30pm 7.1 4.0 7.1 100 0.0 SW 13 19 7 10 1009.0 - 9.8
01/04:28pm 7.0 3.8 7.0 100 0.0 SW 13 19 7 10 1009.0 - 9.8
01/04:11pm 6.8 3.6 6.8 100 0.0 W 13 17 7 9 1009.1 - 9.6
01/04:00pm 6.7 3.1 6.7 100 0.0 W 15 26 8 14 1009.2 - 9.0
01/03:30pm 8.6 5.1 8.6 100 0.0 N 17 20 9 11 1008.8 - 4.4
01/03:00pm 8.6 5.1 8.6 100 0.0 N 17 19 9 10 1008.9 1009.2 3.8
01/02:30pm 8.5 4.9 8.5 100 0.0 N 17 19 9 10 1008.8 - 3.8
01/02:03pm 8.5 4.6 8.5 100 0.0 N 19 22 10 12 1008.4 - 3.8
01/02:00pm 8.5 4.6 8.5 100 0.0 N 19 22 10 12 1008.4 - 3.8
01/01:30pm 8.3 5.1 8.3 100 0.0 NNW 15 22 8 12 1008.8 - 3.4
01/01:12pm 8.3 3.4 8.3 100 0.0 N 24 30 13 16 1009.2 - 3.0
01/01:00pm 8.4 3.5 8.4 100 0.0 N 24 28 13 15 1009.1 - 2.8
01/12:30pm 8.4 3.5 8.4 100 0.0 N 24 30 13 16 1008.8 - 2.6
01/12:00pm 8.5 3.0 7.7 95 0.4 N 26 32 14 17 1009.4 1009.8 1.2
01/11:49am 8.8 3.6 7.4 91 0.7 N 24 30 13 16 1009.6 - 0.6
01/11:30am 9.7 5.1 6.6 81 1.5 N 20 24 11 13 1009.7 - 0.0
01/11:00am 9.8 4.7 6.0 77 1.8 N 22 28 12 15 1009.8 - 0.0
01/10:30am 9.8 3.9 5.8 76 1.9 N 26 32 14 17 1009.6 - 0.0
01/10:00am 9.8 3.6 6.0 77 1.8 N 28 35 15 19 1010.0 - 0.0
01/09:30am 9.4 2.2 5.8 78 1.7 N 33 44 18 24 1009.9 - 0.0
01/09:00am 9.3 0.4 5.3 76 1.9 N 41 50 22 27 1009.1 1009.5 0.0
01/08:30am 9.3 0.5 5.5 77 1.8 N 41 52 22 28 1009.3 - 0.0
01/08:00am 9.4 0.6 5.4 76 1.9 N 41 54 22 29 1009.2 - 0.0
01/07:30am 9.4 0.5 5.2 75 2.0 N 41 54 22 29 1009.3 - 0.0
01/07:00am 9.2 0.8 5.4 77 1.8 N 39 50 21 27 1009.6 - 0.0
01/06:30am 9.6 0.8 5.4 75 2.0 N 41 52 22 28 1009.4 - 0.0
01/06:00am 9.7 0.8 5.3 74 2.1 N 41 54 22 29 1009.9 1010.3 0.0
01/05:30am 9.9 0.7 5.3 73 2.2 N 43 54 23 29 1010.0 - 0.0
01/05:00am 10.6 1.3 4.9 68 2.7 N 43 56 23 30 1009.0 - 0.0
01/04:30am 10.3 0.1 5.1 70 2.4 N 48 61 26 33 1008.8 - 0.0
01/04:00am 10.0 1.2 5.4 73 2.2 N 41 54 22 29 1009.8 - 0.0
01/03:30am 10.2 1.7 5.2 71 2.3 N 39 54 21 29 1010.4 - 0.0
01/03:00am 10.3 1.1 5.3 71 2.4 N 43 56 23 30 1010.3 1010.7 0.0
01/02:30am 10.6 0.4 5.4 70 2.5 N 48 57 26 31 1010.4 - 0.0
01/02:00am 10.8 1.0 5.3 69 2.6 N 46 57 25 31 1011.0 - 0.0
01/01:30am 11.2 1.8 5.5 68 2.7 N 44 56 24 30 1011.4 - 0.0
01/01:00am 11.8 3.7 5.4 65 3.0 N 37 52 20 28 1011.8 - 0.0
01/12:30am 12.0 3.2 5.6 65 3.1 N 41 57 22 31 1011.9 - 0.0
01/12:15am 12.1 3.3 5.7 65 3.1 N 41 59 22 32 1011.9 - 0.0
01/12:00am 12.0 2.9 6.1 67 2.9 N 43 56 23 30 1011.9 1012.3 0.0
 
Date/Time
EST
Temp
°C
App
Temp
°C
Dew
Point
Rel
Hum
%
Delta-T
°C
Wind Press
QNH
hPa
Press
MSL
hPa
Rain
since 9 am
mm
Dir
 
Spd
km/h
Gust
km/h
Spd
kts
Gust
kts
31/11:30pm 11.9 2.9 6.4 69 2.7 N 43 56 23 30 1011.8 - 0.0
31/11:00pm 11.6 2.7 6.7 72 2.4 N 43 52 23 28 1012.2 - 0.0
31/10:30pm 11.7 3.6 7.0 73 2.3 N 39 48 21 26 1012.8 - 0.0
31/10:00pm 12.0 3.5 7.1 72 2.4 N 41 54 22 29 1013.1 - 0.0
31/09:30pm 11.9 4.2 7.2 73 2.3 N 37 46 20 25 1013.4 - 0.0
31/09:00pm 12.6 3.9 7.5 71 2.6 N 43 50 23 27 1013.4 1014.2 0.0
31/08:30pm 12.6 4.2 7.5 71 2.6 N 41 50 22 27 1013.6 - 0.0
31/08:00pm 12.5 5.4 8.0 74 2.3 N 35 43 19 23 1014.0 - 0.0
31/07:30pm 12.8 5.7 7.9 72 2.5 N 35 44 19 24 1013.8 - 0.0
31/07:00pm 12.7 6.2 8.2 74 2.3 NNE 32 43 17 23 1014.0 - 0.0
31/06:30pm 12.7 7.0 8.2 74 2.3 NNE 28 35 15 19 1014.7 - 0.0
31/06:00pm 12.8 7.1 8.3 74 2.3 NNE 28 33 15 18 1014.9 1015.7 0.0
31/05:30pm 13.2 7.5 8.3 72 2.5 NNE 28 35 15 19 1015.0 - 0.0
31/05:00pm 13.5 6.9 8.4 71 2.6 NNE 33 44 18 24 1014.9 - 0.0
31/04:30pm 13.6 7.1 8.2 70 2.8 NNE 32 41 17 22 1014.9 - 0.0
31/04:00pm 13.6 6.9 8.2 70 2.8 NNE 33 41 18 22 1015.0 - 0.0
31/03:30pm 13.9 7.4 8.3 69 2.9 N 32 41 17 22 1015.4 - 0.0
31/03:00pm 14.0 7.9 8.4 69 2.9 N 30 41 16 22 1015.9 1016.8 0.0
31/02:30pm 14.1 8.9 8.7 70 2.8 N 26 37 14 20 1016.4 - 0.0
31/02:00pm 15.1 9.6 9.2 68 3.1 N 28 39 15 21 1016.6 - 0.0
31/01:30pm 15.3 9.1 9.2 67 3.2 N 32 39 17 21 1017.1 - 0.0
31/01:00pm 15.0 9.1 8.9 67 3.2 N 30 41 16 22 1017.5 - 0.0
31/12:30pm 14.7 8.2 8.9 68 3.0 N 33 41 18 22 1017.8 - 0.0
31/12:00pm 14.2 7.8 8.6 69 2.9 N 32 39 17 21 1018.3 1019.2 0.0
31/11:30am 13.2 6.6 8.7 74 2.3 N 33 41 18 22 1018.7 - 0.0
31/11:00am 12.5 5.5 8.6 77 2.0 N 35 44 19 24 1018.8 - 0.0
31/10:30am 11.9 5.4 8.9 82 1.5 N 33 41 18 22 1019.2 - 0.0
31/10:00am 11.1 3.4 8.5 84 1.3 N 39 50 21 27 1019.5 - 0.0
31/09:30am 10.5 2.9 9.1 91 0.7 N 39 48 21 26 1019.8 - 0.0
31/09:00am 10.0 2.3 8.8 92 0.6 N 39 48 21 26 1019.7 1020.6 0.0
31/08:30am 9.6 2.4 9.0 96 0.3 N 37 44 20 24 1019.8 - 0.0
31/08:00am 8.7 1.7 8.6 99 0.0 N 35 43 19 23 1019.9 - 0.0
31/07:30am 8.1 1.4 8.0 99 0.0 N 33 41 18 22 1020.0 - 0.0
31/07:00am 8.2 1.1 8.1 99 0.0 N 35 43 19 23 1019.8 - 0.0
31/06:30am 8.2 1.1 8.1 99 0.0 N 35 43 19 23 1019.5 - 0.0
31/06:00am 8.0 0.9 7.9 99 0.0 N 35 43 19 23 1019.3 1020.2 0.0
31/05:30am 8.6 1.2 8.3 98 0.1 N 37 44 20 24 1018.9 - 0.0
31/05:00am 8.9 1.9 8.3 96 0.3 N 35 43 19 23 1019.1 - 0.0
31/04:30am 8.9 2.4 8.1 95 0.4 N 32 39 17 21 1019.1 - 0.0
31/04:00am 8.8 2.3 8.2 96 0.3 N 32 37 17 20 1019.3 - 0.0
31/03:30am 8.8 2.6 7.9 94 0.4 N 30 35 16 19 1019.3 - 0.0
31/03:00am 8.6 2.4 7.8 95 0.4 N 30 35 16 19 1019.4 1020.3 0.0
31/02:30am 9.2 3.4 8.0 92 0.6 N 28 33 15 18 1019.7 - 0.0
31/02:00am 9.2 3.4 8.0 92 0.6 N 28 32 15 17 1020.1 - 0.0
31/01:30am 9.7 4.3 8.0 89 0.8 N 26 32 14 17 1020.4 - 0.0
31/01:00am 9.9 4.5 8.0 88 0.9 N 26 32 14 17 1020.7 - 0.0
31/12:30am 9.8 4.4 8.2 90 0.8 N 26 28 14 15 1020.9 - 0.0
31/12:00am 9.8 4.9 8.4 91 0.7 N 24 26 13 14 1021.1 1022.0 0.0
 
Date/Time
EST
Temp
°C
App
Temp
°C
Dew
Point
Rel
Hum
%
Delta-T
°C
Wind Press
QNH
hPa
Press
MSL
hPa
Rain
since 9 am
mm
Dir
 
Spd
km/h
Gust
km/h
Spd
kts
Gust
kts
30/11:30pm 10.3 5.8 8.6 89 0.9 N 22 24 12 13 1021.5 - 0.0
30/11:00pm 10.3 6.1 8.4 88 1.0 N 20 24 11 13 1021.8 - 0.0
30/10:30pm 10.5 6.4 8.6 88 1.0 N 20 24 11 13 1022.2 - 0.0
30/10:00pm 10.5 6.0 8.6 88 1.0 N 22 24 12 13 1022.4 - 0.0
30/09:30pm 10.6 6.5 8.5 87 1.1 N 20 24 11 13 1022.7 - 0.0
30/09:00pm 10.6 6.5 8.5 87 1.1 N 20 22 11 12 1022.6 1023.5 0.0
30/08:30pm 11.1 7.0 8.5 84 1.3 N 20 22 11 12 1022.6 - 0.0
30/08:00pm 11.4 7.2 8.4 82 1.5 N 20 24 11 13 1022.3 - 0.0
30/07:30pm 11.6 7.5 8.6 82 1.5 N 20 24 11 13 1022.2 - 0.0
30/07:00pm 11.5 7.6 8.5 82 1.5 N 19 20 10 11 1022.3 - 0.0
30/06:30pm 11.7 8.5 8.6 81 1.6 N 15 17 8 9 1022.6 - 0.0
30/06:00pm 11.9 8.7 8.6 80 1.7 N 15 19 8 10 1022.6 1023.5 0.0
30/05:30pm 13.1 9.6 8.6 74 2.3 N 17 20 9 11 1022.6 - 0.0
30/05:00pm 14.2 9.7 8.6 69 2.9 N 22 28 12 15 1022.3 - 0.0
30/04:30pm 14.6 11.2 9.0 69 2.9 N 17 30 9 16 1022.3 - 0.0
30/04:00pm 15.0 11.2 9.8 71 2.8 N 20 26 11 14 1022.4 - 0.0
30/03:30pm 14.7 10.2 8.6 67 3.2 N 22 28 12 15 1022.6 - 0.0
30/03:00pm 14.9 9.7 8.8 67 3.2 N 26 33 14 18 1022.7 1023.6 0.0
30/02:30pm 14.9 9.8 9.1 68 3.0 N 26 37 14 20 1023.0 - 0.0
30/02:00pm 14.6 9.4 9.0 69 2.9 N 26 37 14 20 1023.2 - 0.0
30/01:30pm 15.0 10.7 10.8 76 2.3 N 24 32 13 17 1023.6 - 0.0
30/01:00pm 14.4 9.1 10.0 75 2.3 N 28 35 15 19 1023.9 - 0.0
30/12:30pm 14.5 9.2 9.9 74 2.5 N 28 37 15 20 1024.2 - 0.0
30/12:00pm 14.0 8.0 8.8 71 2.7 N 30 37 16 20 1024.4 1025.4 0.0
30/11:30am 13.2 6.8 8.7 74 2.3 N 32 37 17 20 1024.8 - 0.0
30/11:00am 12.7 6.3 8.4 75 2.2 N 32 39 17 21 1025.1 - 0.0
30/10:30am 12.3 5.9 8.6 78 1.9 N 32 39 17 21 1025.4 - 0.0
30/10:00am 11.7 5.7 8.6 81 1.6 N 30 39 16 21 1025.7 - 0.0
30/09:30am 11.2 5.9 8.4 83 1.4 N 26 35 14 19 1025.7 - 0.0
30/09:00am 10.1 5.4 9.2 94 0.5 N 24 32 13 17 1025.7 1026.7 0.0
30/08:30am 8.3 3.3 8.2 99 0.0 N 24 26 13 14 1025.7 - 0.0
30/08:00am 7.3 2.5 7.3 100 0.0 N 22 26 12 14 1025.6 - 0.0
30/07:30am 7.0 1.7 7.0 100 0.0 N 24 28 13 15 1025.5 - 0.0
30/07:24am 6.7 1.4 6.7 100 0.0 N 24 26 13 14 1025.5 - 0.0
30/07:00am 6.1 1.4 6.1 100 0.0 N 20 24 11 13 1025.3 - 0.0

Other Formats:

Comma delimited format used in spreadsheet applications
http://www.bom.gov.au/fwo/IDV60801/IDV60801.94860.axf

JavaScript Object Notation format (JSON) in row-major order
http://www.bom.gov.au/fwo/IDV60801/IDV60801.94860.json